Time;durP1;ratioP1;P1;durP2;ratioP2;P2;SDS_P1;SDS_P2;PMS_P1;PMS_P2;Temp;Humidity;BMP_temperature;BMP_pressure;BME280_temperature;BME280_humidity;BME280_pressure;Samples;Min_cycle;Max_cycle;Signal;HPM_P1;HPM_P2
2021/12/19 00:01:02;;;;;;;19.73;13.00;;;;;;;6.65;93.04;103570.47;5091953;28;20494;-78
2021/12/19 00:08:49;;;;;;;18.48;12.90;;;;;;;6.57;92.91;103559.88;5090933;28;20054;-78
2021/12/19 00:11:17;;;;;;;17.90;12.95;;;;;;;6.62;93.37;103561.63;5093173;28;20031;-78
2021/12/19 00:13:42;;;;;;;17.17;13.02;;;;;;;6.62;93.17;103557.25;5092624;28;20024;-75
2021/12/19 00:16:08;;;;;;;18.17;13.13;;;;;;;6.56;93.04;103547.56;5091399;28;20119;-77
2021/12/19 00:18:34;;;;;;;17.52;12.82;;;;;;;6.46;92.82;103529.94;5092640;28;20459;-78
2021/12/19 00:20:59;;;;;;;22.77;14.82;;;;;;;6.51;92.86;103533.47;5091610;28;20072;-77
2021/12/19 00:23:26;;;;;;;17.08;12.88;;;;;;;6.61;92.87;103544.88;5092661;28;20043;-77
2021/12/19 00:25:52;;;;;;;21.70;14.48;;;;;;;6.46;92.94;103522.03;5093378;28;20065;-77
2021/12/19 00:28:17;;;;;;;19.95;13.43;;;;;;;6.59;93.02;103547.56;5092280;28;20482;-77
2021/12/19 00:30:43;;;;;;;18.77;13.68;;;;;;;6.59;93.19;103538.75;5090747;28;20073;-76
2021/12/19 00:33:08;;;;;;;20.90;13.85;;;;;;;6.63;93.17;103535.19;5092809;28;20019;-79
2021/12/19 00:35:34;;;;;;;25.05;14.95;;;;;;;6.28;93.28;103485.06;5092651;28;20424;-78
2021/12/19 00:37:59;;;;;;;22.67;15.38;;;;;;;6.58;93.08;103532.56;5092406;28;20536;-76
2021/12/19 00:40:25;;;;;;;24.02;14.93;;;;;;;6.44;93.30;103507.94;5092662;28;20077;-75
2021/12/19 00:43:01;;;;;;;27.58;16.33;;;;;;;6.46;93.37;103519.38;5092708;28;20032;-77
2021/12/19 00:45:30;;;;;;;24.13;16.40;;;;;;;6.30;93.66;103485.97;5092526;28;20030;-75
2021/12/19 00:47:55;;;;;;;23.63;15.40;;;;;;;6.48;93.23;103512.31;5092043;28;20107;-77
2021/12/19 00:50:21;;;;;;;26.88;15.35;;;;;;;6.58;93.61;103534.31;5091225;28;20127;-77
2021/12/19 00:52:46;;;;;;;21.75;15.20;;;;;;;6.58;93.64;103532.56;5092358;28;20039;-77
2021/12/19 00:55:13;;;;;;;24.52;15.57;;;;;;;6.42;93.64;103515.00;5091348;28;20032;-78
2021/12/19 00:57:39;;;;;;;23.90;16.48;;;;;;;6.27;93.56;103492.13;5091794;28;20463;-76
2021/12/19 01:00:07;;;;;;;26.92;18.00;;;;;;;6.50;93.82;103528.16;5092141;28;20081;-76
2021/12/19 01:02:32;;;;;;;27.48;17.10;;;;;;;6.49;94.16;103535.22;5092492;28;20024;-79
2021/12/19 01:04:58;;;;;;;28.10;17.25;;;;;;;6.44;94.30;103518.53;5095007;28;20020;-77
2021/12/19 01:07:23;;;;;;;27.92;17.80;;;;;;;6.51;94.25;103532.59;5096231;28;20109;-76
2021/12/19 01:09:49;;;;;;;29.52;17.45;;;;;;;6.51;94.35;103532.59;5094951;28;20044;-76
2021/12/19 01:12:14;;;;;;;29.80;18.02;;;;;;;6.46;94.38;103523.78;5096508;28;20024;-76
2021/12/19 01:14:40;;;;;;;27.90;16.95;;;;;;;6.46;94.53;103524.66;5096144;28;20031;-78
2021/12/19 01:17:07;;;;;;;31.27;17.92;;;;;;;6.44;94.60;103526.44;5096329;28;20384;-77
2021/12/19 01:19:33;;;;;;;30.92;17.98;;;;;;;6.39;94.81;103507.06;5095979;28;20027;-78
2021/12/19 01:21:59;;;;;;;30.98;18.45;;;;;;;6.46;94.53;103518.50;5096057;28;20459;-77
2021/12/19 01:24:25;;;;;;;26.33;16.52;;;;;;;6.44;94.59;103513.22;5096239;28;20016;-78
2021/12/19 01:26:50;;;;;;;28.73;16.73;;;;;;;6.40;94.33;103511.47;5095878;28;20028;-76
2021/12/19 01:29:16;;;;;;;31.13;17.13;;;;;;;6.43;94.68;103514.09;5094140;28;20036;-76
2021/12/19 01:31:42;;;;;;;28.23;16.30;;;;;;;6.46;94.70;103507.94;5095979;28;20032;-77
2021/12/19 01:34:12;;;;;;;28.88;17.52;;;;;;;6.42;95.03;103509.72;5095902;28;20035;-77
2021/12/19 01:36:38;;;;;;;28.88;17.10;;;;;;;6.41;94.52;103505.28;5095261;28;20031;-77
2021/12/19 01:39:04;;;;;;;34.22;17.40;;;;;;;6.43;94.93;103507.94;5094152;28;20071;-76
2021/12/19 01:41:29;;;;;;;30.50;16.52;;;;;;;6.40;94.83;103503.53;5095759;28;20055;-78
2021/12/19 01:43:54;;;;;;;28.70;16.40;;;;;;;6.36;95.09;103500.03;5095862;28;20035;-77
2021/12/19 01:46:20;;;;;;;24.70;14.55;;;;;;;6.35;94.78;103495.63;5095664;28;20043;-78
2021/12/19 01:48:45;;;;;;;27.23;15.20;;;;;;;6.39;95.10;103503.56;5095187;28;20028;-79
2021/12/19 01:51:11;;;;;;;24.50;14.30;;;;;;;6.37;94.51;103508.81;5095462;28;20032;-79
2021/12/19 01:53:36;;;;;;;24.40;14.80;;;;;;;6.32;94.57;103492.09;5095526;28;20024;-79
2021/12/19 01:56:03;;;;;;;30.92;15.32;;;;;;;6.36;94.94;103499.16;5095502;28;20036;-77
2021/12/19 01:58:29;;;;;;;25.17;15.10;;;;;;;6.13;94.92;103467.50;5093918;28;20040;-77
2021/12/19 02:00:57;;;;;;;26.00;14.48;;;;;;;6.23;94.84;103481.56;5095062;28;20390;-78
2021/12/19 02:03:23;;;;;;;29.63;15.70;;;;;;;6.17;94.98;103474.50;5095555;28;20057;-77
2021/12/19 02:05:49;;;;;;;29.20;16.45;;;;;;;6.29;95.02;103484.19;5095245;28;20561;-78
2021/12/19 02:08:16;;;;;;;29.58;15.93;;;;;;;6.26;95.12;103485.06;5095270;28;20034;-76
2021/12/19 02:10:42;;;;;;;30.17;15.93;;;;;;;6.33;95.17;103486.81;5094927;28;20060;-77
2021/12/19 02:13:10;;;;;;;25.83;15.88;;;;;;;6.17;94.50;103474.50;5095246;28;20490;-76
2021/12/19 02:15:38;;;;;;;28.95;15.93;;;;;;;6.25;94.68;103485.94;5093867;28;20360;-76
2021/12/19 02:18:08;;;;;;;28.40;16.00;;;;;;;6.24;95.16;103485.97;5095266;28;20047;-77
2021/12/19 02:20:38;;;;;;;30.67;16.60;;;;;;;6.24;94.82;103492.13;5094304;28;20034;-78
2021/12/19 02:23:04;;;;;;;31.92;16.02;;;;;;;6.24;95.27;103483.34;5095174;28;20039;-77
2021/12/19 02:25:29;;;;;;;27.67;16.48;;;;;;;6.20;95.03;103478.91;5094877;28;20512;-78
2021/12/19 02:27:55;;;;;;;31.27;16.80;;;;;;;6.23;95.18;103474.50;5095021;28;20031;-77
2021/12/19 02:30:21;;;;;;;35.05;16.40;;;;;;;6.11;95.13;103466.59;5094435;28;20016;-77
2021/12/19 02:32:46;;;;;;;30.77;16.95;;;;;;;6.23;94.97;103473.63;5095020;28;20518;-76
2021/12/19 02:35:17;;;;;;;31.40;15.95;;;;;;;6.11;95.07;103462.19;5094700;28;20370;-79
2021/12/19 02:39:08;;;;;;;32.75;16.55;;;;;;;6.12;95.60;103456.06;5093338;28;20028;-76
2021/12/19 02:48:41;;;;;;;31.75;16.38;;;;;;;6.07;94.81;103434.03;5093928;28;20078;-76
2021/12/19 02:51:06;;;;;;;32.15;16.58;;;;;;;6.24;95.03;103447.22;5094219;28;20028;-78
2021/12/19 02:53:40;;;;;;;31.15;16.75;;;;;;;6.08;95.09;103416.41;5092388;28;20050;-76
2021/12/19 02:56:09;;;;;;;37.63;17.02;;;;;;;6.18;94.63;103439.31;5093227;28;20118;-77
2021/12/19 02:58:36;;;;;;;34.30;16.73;;;;;;;6.10;95.05;103430.50;5094020;28;20028;-78
2021/12/19 03:01:04;;;;;;;37.22;18.27;;;;;;;6.17;95.17;103434.00;5093298;28;20081;-77
2021/12/19 03:03:29;;;;;;;40.67;18.88;;;;;;;6.16;94.99;103446.34;5093327;28;20038;-77
2021/12/19 03:05:56;;;;;;;40.70;18.45;;;;;;;6.10;95.42;103444.59;5093941;28;20032;-76
2021/12/19 03:08:21;;;;;;;37.42;18.85;;;;;;;6.14;95.87;103437.53;5092500;28;20046;-78
2021/12/19 03:18:25;;;;;;;42.70;19.65;;;;;;;6.00;96.03;103419.09;5094158;28;20090;-78
2021/12/19 03:20:50;;;;;;;46.55;20.85;;;;;;;6.10;95.84;103433.16;5093970;28;20391;-78
2021/12/19 03:23:15;;;;;;;43.53;19.60;;;;;;;6.13;96.17;103430.50;5092036;28;20025;-76
2021/12/19 03:25:41;;;;;;;42.80;20.63;;;;;;;6.13;95.76;103423.44;5093914;28;20060;-77
2021/12/19 03:28:09;;;;;;;42.92;19.67;;;;;;;6.05;95.83;103422.59;5093193;28;20036;-79
2021/12/19 03:30:37;;;;;;;40.10;20.13;;;;;;;6.09;95.72;103419.06;5093780;28;20032;-77
2021/12/19 03:33:03;;;;;;;47.63;20.75;;;;;;;5.89;95.77;103381.22;5093322;28;20027;-77
2021/12/19 03:35:30;;;;;;;48.55;20.73;;;;;;;6.10;95.89;103404.97;5091780;28;20051;-77
2021/12/19 03:37:57;;;;;;;42.88;20.42;;;;;;;5.85;96.10;103364.53;5093389;28;20039;-77
2021/12/19 03:40:24;;;;;;;46.55;21.45;;;;;;;6.08;96.39;103390.00;5093742;28;20069;-76
2021/12/19 03:42:52;;;;;;;44.05;20.77;;;;;;;6.08;96.42;103396.16;5092280;28;20059;-77
2021/12/19 03:45:21;;;;;;;42.63;20.30;;;;;;;6.03;96.41;103392.66;5092052;28;20032;-78
2021/12/19 03:47:47;;;;;;;46.13;20.80;;;;;;;6.11;96.07;103404.06;5093223;28;20028;-79
2021/12/19 03:50:16;;;;;;;44.63;20.67;;;;;;;6.02;96.28;103372.41;5093370;28;20028;-78
2021/12/19 03:52:41;;;;;;;47.10;22.52;;;;;;;6.09;96.19;103386.50;5093307;28;20512;-77
2021/12/19 03:55:08;;;;;;;50.03;22.30;;;;;;;6.13;96.19;103391.75;5091778;28;20036;-78
2021/12/19 03:57:33;;;;;;;46.15;22.05;;;;;;;6.10;96.31;103375.03;5093076;28;20494;-78
2021/12/19 03:59:59;;;;;;;53.38;23.02;;;;;;;6.07;96.06;103377.69;5092006;28;20074;-76
2021/12/19 04:02:26;;;;;;;50.60;22.73;;;;;;;6.21;96.35;103386.44;5093035;28;20031;-75
2021/12/19 04:04:54;;;;;;;45.85;21.33;;;;;;;6.16;96.62;103367.06;5091071;28;20069;-77
2021/12/19 04:07:20;;;;;;;50.83;21.50;;;;;;;6.19;96.00;103375.00;5093064;28;20032;-78
2021/12/19 04:09:45;;;;;;;47.28;21.33;;;;;;;6.20;96.43;103382.03;5093145;28;20095;-77
2021/12/19 04:12:10;;;;;;;48.80;21.77;;;;;;;6.25;96.12;103379.38;5092240;28;20054;-77
2021/12/19 04:14:36;;;;;;;44.22;19.95;;;;;;;6.22;96.40;103382.91;5091374;28;20036;-76
2021/12/19 04:17:02;;;;;;;48.13;20.98;;;;;;;6.04;96.50;103351.28;5091694;28;20135;-77
2021/12/19 04:19:29;;;;;;;50.47;20.27;;;;;;;6.16;96.03;103376.78;5092075;28;20028;-77
2021/12/19 04:21:55;;;;;;;49.72;20.48;;;;;;;6.11;96.36;103364.44;5082140;28;20043;-78
2021/12/19 04:24:20;;;;;;;47.38;19.70;;;;;;;6.04;96.21;103351.28;5072719;28;20020;-77
2021/12/19 04:26:45;;;;;;;37.70;18.35;;;;;;;6.01;96.19;103344.25;5080543;28;20387;-76
2021/12/19 04:29:11;;;;;;;37.20;17.63;;;;;;;5.83;95.99;103316.09;5072580;28;20446;-77
2021/12/19 04:31:37;;;;;;;34.28;17.23;;;;;;;6.10;95.88;103360.03;5078149;28;20027;-77
2021/12/19 04:34:03;;;;;;;40.63;17.40;;;;;;;5.91;95.75;103338.09;5083400;28;20031;-77
2021/12/19 04:36:33;;;;;;;34.83;16.88;;;;;;;5.96;95.99;103346.00;5088529;28;20024;-77
2021/12/19 04:39:20;;;;;;;;;;;;;;;6.07;95.70;103357.41;5092502;28;20031;-77
2021/12/19 04:53:09;;;;;;;27.75;13.57;;;;;;;5.78;96.37;103317.00;5072677;28;20463;-76
2021/12/19 05:14:35;;;;;;;26.20;12.07;;;;;;;5.92;95.49;103326.63;4971373;28;20034;-78
2021/12/19 05:17:06;;;;;;;22.98;11.95;;;;;;;6.01;95.42;103328.38;4961023;28;20075;-76
2021/12/19 05:19:44;;;;;;;26.58;12.95;;;;;;;5.85;94.96;103313.44;4951811;29;20054;-77
2021/12/19 05:22:10;;;;;;;25.88;13.48;;;;;;;5.87;95.20;103306.41;4951777;28;20545;-79
2021/12/19 05:27:19;;;;;;;24.30;12.68;;;;;;;5.88;95.42;103305.50;4951654;29;20118;-77
2021/12/19 05:29:44;;;;;;;23.52;12.55;;;;;;;5.92;95.21;103316.06;4951853;28;20553;-76
2021/12/19 05:32:10;;;;;;;24.52;12.75;;;;;;;5.96;95.23;103327.53;4951614;29;20039;-77
2021/12/19 05:34:36;;;;;;;26.83;12.85;;;;;;;5.89;95.38;103305.50;4954813;28;20430;-77
2021/12/19 05:45:14;;;;;;;30.13;16.27;;;;;;;5.94;95.17;103325.75;5057242;28;20102;-76
2021/12/19 05:47:42;;;;;;;32.42;17.00;;;;;;;5.81;94.61;103311.69;5090273;28;20063;-77
2021/12/19 05:50:08;;;;;;;34.05;16.02;;;;;;;5.91;94.86;103322.25;5074363;28;20097;-77
2021/12/19 05:52:33;;;;;;;33.20;16.05;;;;;;;5.90;95.08;103325.75;5076315;28;20018;-78
2021/12/19 05:54:58;;;;;;;30.98;14.95;;;;;;;5.93;95.05;103324.88;5057388;28;20029;-77
2021/12/19 05:57:24;;;;;;;25.42;14.13;;;;;;;5.77;94.38;103305.56;5092472;28;20089;-79
2021/12/19 05:59:50;;;;;;;22.73;13.48;;;;;;;5.73;94.78;103295.00;5095475;28;20435;-77
2021/12/19 06:02:16;;;;;;;22.95;12.05;;;;;;;5.80;94.57;103304.69;5093957;28;20039;-77
2021/12/19 06:04:42;;;;;;;17.50;11.10;;;;;;;5.74;94.31;103302.94;5077037;28;20051;-77
2021/12/19 06:07:08;;;;;;;17.63;10.85;;;;;;;5.83;94.71;103312.59;5077814;28;20037;-77
2021/12/19 06:09:33;;;;;;;17.60;11.00;;;;;;;5.79;94.37;103298.50;5076235;28;20035;-77
2021/12/19 06:11:58;;;;;;;19.52;10.65;;;;;;;5.82;93.85;103309.03;5090528;28;20106;-76
2021/12/19 06:14:25;;;;;;;17.17;11.23;;;;;;;5.80;94.19;103302.91;5095118;28;20049;-76
2021/12/19 06:16:51;;;;;;;17.88;11.13;;;;;;;5.69;94.78;103284.44;5080972;28;20145;-76
2021/12/19 06:19:16;;;;;;;20.23;11.57;;;;;;;5.86;94.59;103304.66;5083514;28;20063;-78
2021/12/19 06:21:41;;;;;;;21.90;12.40;;;;;;;5.82;94.61;103303.75;5076637;28;20052;-77
2021/12/19 06:24:07;;;;;;;20.05;12.88;;;;;;;5.69;94.37;103286.22;5094864;28;20115;-76
2021/12/19 06:26:35;;;;;;;19.08;14.23;;;;;;;5.86;94.68;103307.28;5075955;28;20040;-77
2021/12/19 06:29:02;;;;;;;21.00;13.52;;;;;;;5.89;94.64;103305.50;5094736;28;20024;-78
2021/12/19 06:31:28;;;;;;;23.40;15.15;;;;;;;5.59;94.47;103264.25;5094778;28;20032;-77
2021/12/19 06:33:53;;;;;;;25.70;16.02;;;;;;;5.77;94.35;103288.84;5093564;28;20519;-78
2021/12/19 06:36:18;;;;;;;24.77;15.70;;;;;;;5.83;94.25;103304.66;5094728;28;20027;-75
2021/12/19 06:38:44;;;;;;;26.35;15.90;;;;;;;5.81;94.32;103301.13;5094789;28;20040;-76
2021/12/19 06:41:09;;;;;;;28.65;15.80;;;;;;;5.85;94.13;103295.84;5093000;28;20043;-78
2021/12/19 06:43:34;;;;;;;30.10;17.30;;;;;;;5.88;94.78;103297.56;5094120;28;20035;-76
2021/12/19 06:46:00;;;;;;;29.48;18.85;;;;;;;5.73;94.46;103272.09;5094855;28;20417;-77
2021/12/19 06:48:25;;;;;;;33.30;20.17;;;;;;;5.83;94.36;103294.09;5094204;28;20394;-77
2021/12/19 06:50:51;;;;;;;32.65;20.08;;;;;;;5.69;94.61;103268.59;5094470;28;20024;-76
2021/12/19 06:53:17;;;;;;;31.27;20.27;;;;;;;5.76;94.78;103271.22;5093694;28;20114;-76
2021/12/19 06:55:43;;;;;;;30.30;19.92;;;;;;;5.80;94.49;103267.72;5094342;28;20111;-76
2021/12/19 06:58:09;;;;;;;34.67;21.15;;;;;;;5.81;95.02;103272.97;5075984;28;20455;-77
2021/12/19 07:00:35;;;;;;;37.78;22.02;;;;;;;5.76;94.68;103250.97;5093842;28;20103;-76
2021/12/19 07:03:00;;;;;;;36.00;21.00;;;;;;;5.77;94.85;103252.75;5075062;28;20024;-77
2021/12/19 07:05:26;;;;;;;35.78;21.33;;;;;;;5.82;95.11;103250.06;5094208;28;20038;-79
2021/12/19 07:07:51;;;;;;;40.00;22.27;;;;;;;5.67;95.17;103222.84;5092579;28;20487;-76
2021/12/19 07:10:17;;;;;;;36.05;20.60;;;;;;;5.82;94.96;103261.50;5094303;28;20032;-77
2021/12/19 07:12:43;;;;;;;37.08;22.67;;;;;;;5.87;95.46;103267.66;5093818;28;20044;-78
2021/12/19 07:15:10;;;;;;;41.25;23.80;;;;;;;5.77;95.01;103242.19;5093709;28;20068;-76
2021/12/19 07:17:35;;;;;;;43.25;23.30;;;;;;;5.71;95.11;103229.00;5093749;28;20123;-76
2021/12/19 07:20:02;;;;;;;38.15;22.83;;;;;;;5.70;95.00;103241.31;5093957;28;20515;-76
2021/12/19 07:22:27;;;;;;;45.25;24.40;;;;;;;5.81;95.51;103248.31;5075584;28;20494;-76
2021/12/19 07:24:52;;;;;;;46.33;25.65;;;;;;;5.68;95.82;103227.25;5093563;28;20089;-78
2021/12/19 07:27:18;;;;;;;44.15;24.60;;;;;;;5.83;95.67;103246.56;5093883;28;20020;-76
2021/12/19 07:29:43;;;;;;;47.88;24.77;;;;;;;5.83;95.88;103249.22;5093587;28;20020;-78
2021/12/19 07:32:10;;;;;;;46.63;24.75;;;;;;;5.67;95.31;103221.97;5075605;28;20131;-77
2021/12/19 07:34:37;;;;;;;43.55;24.20;;;;;;;5.90;95.98;103253.56;5093270;28;20375;-80
2021/12/19 07:37:04;;;;;;;45.13;24.55;;;;;;;5.84;95.96;103240.38;5093036;28;20035;-75
2021/12/19 07:42:02;;;;;;;47.10;25.98;;;;;;;5.81;95.89;103235.13;5093478;28;20028;-79
2021/12/19 07:44:27;;;;;;;45.97;25.48;;;;;;;5.73;95.86;103224.59;5093231;28;20016;-77
2021/12/19 07:46:53;;;;;;;44.47;25.67;;;;;;;5.93;95.78;103240.38;5092006;28;20109;-77
2021/12/19 07:49:18;;;;;;;46.50;25.35;;;;;;;5.80;96.32;103226.31;5093513;28;20028;-77
2021/12/19 07:51:43;;;;;;;50.25;26.17;;;;;;;5.67;96.30;103199.09;5093134;28;20028;-76
2021/12/19 07:54:09;;;;;;;52.45;27.55;;;;;;;5.95;96.27;103240.38;5093373;28;20114;-77
2021/12/19 07:56:35;;;;;;;54.47;28.35;;;;;;;5.98;96.07;103235.09;5092991;28;20032;-76
2021/12/19 07:59:00;;;;;;;48.92;26.52;;;;;;;5.76;96.16;103195.53;5093206;28;20142;-78
2021/12/19 08:01:26;;;;;;;45.05;24.98;;;;;;;5.92;96.16;103225.38;5093056;28;20492;-76
2021/12/19 08:03:51;;;;;;;44.42;22.52;;;;;;;5.92;96.10;103230.66;5091892;28;20032;-76
2021/12/19 08:06:17;;;;;;;41.63;22.27;;;;;;;5.86;96.24;103231.56;5091439;28;20069;-77
2021/12/19 08:08:47;;;;;;;43.78;22.58;;;;;;;5.94;96.38;103228.91;5091566;28;20177;-78
2021/12/19 08:13:56;;;;;;;41.70;21.73;;;;;;;5.94;96.70;103222.75;5092282;28;20039;-76
2021/12/19 08:16:22;;;;;;;39.70;20.35;;;;;;;5.81;96.33;103201.66;5090881;28;20048;-76
2021/12/19 08:18:47;;;;;;;35.58;18.90;;;;;;;5.91;96.58;103203.38;5092993;28;20081;-77
2021/12/19 08:21:12;;;;;;;35.72;18.92;;;;;;;6.07;96.37;103230.63;5092690;28;20028;-76
2021/12/19 08:23:38;;;;;;;33.80;18.88;;;;;;;6.07;96.43;103225.31;5093055;28;20473;-78
2021/12/19 08:26:03;;;;;;;32.65;18.13;;;;;;;5.92;96.35;103206.91;5092784;28;20030;-78
2021/12/19 08:28:29;;;;;;;30.35;17.00;;;;;;;6.01;96.44;103209.53;5092488;28;20394;-75
2021/12/19 08:30:54;;;;;;;23.88;14.70;;;;;;;6.12;96.14;103220.91;5091402;28;20090;-78
2021/12/19 08:33:19;;;;;;;27.27;15.38;;;;;;;6.07;96.12;103203.31;5092757;28;20119;-77
2021/12/19 08:35:45;;;;;;;23.58;14.82;;;;;;;6.10;96.72;103211.22;5092486;28;20395;-78
2021/12/19 08:38:11;;;;;;;25.52;16.20;;;;;;;6.12;96.70;103223.53;5091074;28;20050;-77
2021/12/19 08:40:37;;;;;;;23.70;14.93;;;;;;;6.09;96.54;103198.91;5091427;28;20081;-79
2021/12/19 08:43:04;;;;;;;30.38;17.50;;;;;;;6.22;96.33;103216.44;5091379;28;20489;-77
2021/12/19 08:45:30;;;;;;;32.33;17.90;;;;;;;6.14;96.67;103205.91;5092429;28;20016;-79
2021/12/19 08:47:56;;;;;;;34.58;19.25;;;;;;;6.17;96.47;103198.84;5092439;28;20020;-79
2021/12/19 08:50:23;;;;;;;37.10;19.67;;;;;;;6.23;96.62;103220.81;5092250;28;20024;-78
2021/12/19 08:52:48;;;;;;;30.58;18.23;;;;;;;6.31;96.60;103229.56;5092519;28;20042;-78
2021/12/19 08:55:14;;;;;;;34.13;20.33;;;;;;;6.32;96.64;103219.88;5092487;28;20101;-78
2021/12/19 08:57:39;;;;;;;32.63;18.67;;;;;;;6.31;96.20;103221.66;5092176;28;20055;-80
2021/12/19 09:00:11;;;;;;;33.70;18.42;;;;;;;6.23;96.18;103194.38;5092464;28;20425;-83
2021/12/19 09:02:37;;;;;;;30.92;17.33;;;;;;;6.23;96.43;103197.03;5092433;28;20042;-83
2021/12/19 09:05:03;;;;;;;36.33;18.33;;;;;;;6.23;96.55;103190.88;5091096;28;20035;-79
2021/12/19 09:07:29;;;;;;;28.40;18.02;;;;;;;6.30;97.17;103214.63;5092385;28;20024;-79
2021/12/19 09:09:54;;;;;;;29.40;17.50;;;;;;;6.35;96.92;103212.81;5088411;28;20039;-82
2021/12/19 09:12:20;;;;;;;27.33;16.13;;;;;;;6.35;96.78;103204.00;5092244;28;20038;-82
2021/12/19 09:14:45;;;;;;;29.50;18.45;;;;;;;6.36;96.95;103211.94;5091905;28;20063;-79
2021/12/19 09:17:10;;;;;;;27.60;16.80;;;;;;;6.28;96.96;103195.25;5091991;28;20547;-82
2021/12/19 09:19:36;;;;;;;26.33;16.02;;;;;;;6.41;96.99;103209.22;5091716;28;20103;-78
2021/12/19 09:22:02;;;;;;;23.25;14.70;;;;;;;6.40;97.15;103207.50;5091899;28;20028;-80
2021/12/19 09:24:27;;;;;;;20.42;13.43;;;;;;;6.40;97.11;103207.50;5092389;28;20012;-79
2021/12/19 09:26:53;;;;;;;17.98;12.77;;;;;;;6.41;96.84;103200.44;5095987;28;20582;-81
2021/12/19 09:29:18;;;;;;;19.52;11.45;;;;;;;6.42;97.24;103199.56;5095708;28;20039;-77
2021/12/19 09:31:43;;;;;;;17.10;10.70;;;;;;;6.42;97.07;103194.28;5077561;28;20089;-80
2021/12/19 09:34:10;;;;;;;17.60;11.02;;;;;;;6.29;97.02;103172.34;5095790;28;20497;-81
2021/12/19 09:36:35;;;;;;;15.25;10.45;;;;;;;6.28;97.03;103166.19;5077369;28;20028;-82
2021/12/19 09:39:03;;;;;;;12.65;8.75;;;;;;;6.50;96.93;103192.44;5095186;28;20036;-79
2021/12/19 09:41:33;;;;;;;9.23;7.15;;;;;;;6.51;96.23;103194.19;5095611;28;20094;-79
2021/12/19 09:44:02;;;;;;;11.45;7.40;;;;;;;6.49;96.62;103195.97;5095373;28;20355;-79
2021/12/19 09:46:31;;;;;;;10.40;7.07;;;;;;;6.50;96.54;103189.78;5095600;28;20020;-80
2021/12/19 09:48:57;;;;;;;9.02;6.50;;;;;;;6.49;96.39;103190.69;5095157;28;20046;-79
2021/12/19 09:51:23;;;;;;;9.02;6.78;;;;;;;6.36;96.31;103169.63;5094183;28;20070;-81
2021/12/19 09:53:48;;;;;;;10.80;6.65;;;;;;;6.51;96.54;103188.91;5095289;28;20059;-77
2021/12/19 09:56:14;;;;;;;10.07;6.32;;;;;;;6.47;96.45;103179.22;5095441;28;20024;-77
2021/12/19 09:58:40;;;;;;;7.80;6.18;;;;;;;6.37;96.71;103159.94;5095316;28;20023;-77
2021/12/19 10:01:09;;;;;;;8.63;6.22;;;;;;;6.53;96.51;103193.31;5094482;28;20055;-77
2021/12/19 10:03:37;;;;;;;8.38;6.93;;;;;;;6.52;96.63;103188.00;5093457;28;20036;-79
2021/12/19 10:06:11;;;;;;;10.48;6.90;;;;;;;6.57;96.43;103192.38;5094068;28;20085;-79
2021/12/19 10:08:37;;;;;;;11.38;6.57;;;;;;;6.49;96.26;103180.97;5092572;28;20036;-78
2021/12/19 10:11:03;;;;;;;10.77;7.05;;;;;;;6.49;96.23;103174.81;5095086;28;20132;-80
2021/12/19 10:13:35;;;;;;;10.77;7.20;;;;;;;6.41;96.30;103164.28;5094956;28;20028;-79
2021/12/19 10:16:20;;;;;;;11.30;7.55;;;;;;;6.51;96.14;103178.34;5095572;28;20066;-80
2021/12/19 10:18:53;;;;;;;9.70;7.05;;;;;;;6.42;96.79;103157.28;5095261;28;20044;-81
2021/12/19 10:21:20;;;;;;;11.93;7.90;;;;;;;6.36;96.44;103143.22;5095040;28;20402;-80
2021/12/19 10:23:45;;;;;;;11.30;7.20;;;;;;;6.43;96.30;103137.88;5094178;28;20032;-79
2021/12/19 10:26:12;;;;;;;11.43;7.43;;;;;;;6.65;96.45;103170.25;5095336;28;20039;-77
2021/12/19 10:28:57;;;;;;;14.30;8.63;;;;;;;6.67;96.88;103168.50;5094105;28;20085;-80
2021/12/19 10:31:25;;;;;;;10.82;7.75;;;;;;;6.63;96.50;103167.66;5088299;28;20111;-78
2021/12/19 10:33:51;;;;;;;11.52;8.30;;;;;;;6.66;96.53;103166.75;5094565;28;20032;-79
2021/12/19 10:36:18;;;;;;;11.45;8.02;;;;;;;6.51;96.46;103134.25;5091056;28;20036;-82
2021/12/19 10:38:50;;;;;;;10.55;7.70;;;;;;;6.52;96.67;103137.78;5094651;28;20465;-80
2021/12/19 10:41:34;;;;;;;13.13;9.02;;;;;;;6.68;96.41;103152.63;5092812;28;20065;-82
2021/12/19 10:44:05;;;;;;;9.82;7.85;;;;;;;6.66;96.51;103151.75;5094649;28;20027;-80
2021/12/19 10:46:40;;;;;;;11.10;8.13;;;;;;;6.67;96.84;103147.34;5092759;28;20118;-79
2021/12/19 10:49:24;;;;;;;11.00;8.05;;;;;;;6.57;96.72;103128.91;5092506;28;20074;-80
2021/12/19 10:51:50;;;;;;;12.23;8.55;;;;;;;6.60;96.55;103130.66;5094087;28;20042;-78
2021/12/19 10:54:16;;;;;;;10.20;7.60;;;;;;;6.53;96.75;103116.63;5094176;28;20485;-81
2021/12/19 10:56:41;;;;;;;12.90;8.80;;;;;;;6.60;96.57;103117.44;5094386;28;20024;-80
2021/12/19 10:59:17;;;;;;;11.98;8.40;;;;;;;6.49;96.50;103101.66;5092724;28;20131;-81
2021/12/19 11:01:48;;;;;;;10.80;8.20;;;;;;;6.59;96.65;103108.63;5094002;28;20032;-79
2021/12/19 11:04:15;;;;;;;9.73;8.32;;;;;;;6.73;96.39;103131.41;5093976;28;20040;-81
2021/12/19 11:06:41;;;;;;;9.13;7.70;;;;;;;6.72;96.31;103134.94;5093663;28;20160;-81
2021/12/19 11:09:16;;;;;;;10.68;7.72;;;;;;;6.63;96.50;103119.19;5093403;28;20032;-79
2021/12/19 11:11:52;;;;;;;10.82;7.97;;;;;;;6.71;96.49;103126.16;5093451;28;20023;-80
2021/12/19 11:14:19;;;;;;;9.40;8.30;;;;;;;6.74;96.65;103127.91;5091792;28;20032;-79
2021/12/19 11:16:46;;;;;;;12.10;9.32;;;;;;;6.76;96.30;103110.22;5093443;28;20089;-78
2021/12/19 11:19:12;;;;;;;12.30;8.90;;;;;;;6.78;96.25;103106.66;5093293;28;20443;-78
2021/12/19 11:21:38;;;;;;;9.63;8.13;;;;;;;6.84;96.32;103103.09;5093459;28;20455;-81
2021/12/19 11:24:08;;;;;;;10.73;8.32;;;;;;;6.81;95.94;103095.19;5091107;28;20053;-78
2021/12/19 11:26:37;;;;;;;10.90;7.13;;;;;;;6.80;95.67;103094.31;5093457;28;20024;-80
2021/12/19 11:29:05;;;;;;;9.97;7.57;;;;;;;6.82;95.82;103092.53;5092831;28;20032;-78
2021/12/19 11:31:31;;;;;;;9.77;7.47;;;;;;;6.76;96.04;103074.06;5091898;28;20035;-82
2021/12/19 11:34:03;;;;;;;9.77;7.15;;;;;;;6.85;95.81;103067.78;5092438;28;20036;-78
2021/12/19 11:36:34;;;;;;;7.60;6.55;;;;;;;6.82;95.44;103076.66;5088310;28;20036;-84
2021/12/19 11:39:02;;;;;;;7.95;6.15;;;;;;;6.80;95.19;103062.56;5093567;28;20063;-76
2021/12/19 11:41:28;;;;;;;7.53;5.97;;;;;;;6.82;95.07;103054.59;5098686;28;20032;-79
2021/12/19 11:43:55;;;;;;;6.85;6.15;;;;;;;6.66;94.87;103031.91;5099893;28;20028;-80
2021/12/19 11:46:45;;;;;;;8.95;6.43;;;;;;;6.76;95.11;103042.31;5074666;28;20040;-79
2021/12/19 11:49:23;;;;;;;7.43;5.80;;;;;;;6.86;94.83;103061.63;5072712;28;20055;-79
2021/12/19 11:52:09;;;;;;;7.78;5.97;;;;;;;6.87;94.99;103057.22;5072949;28;20547;-82
2021/12/19 11:54:34;;;;;;;6.72;5.88;;;;;;;6.73;95.46;103017.69;5081080;28;20065;-76
2021/12/19 11:57:10;;;;;;;7.00;6.22;;;;;;;6.82;95.27;103034.34;5093306;28;20024;-78
2021/12/19 11:59:38;;;;;;;8.80;5.93;;;;;;;6.95;94.88;103047.41;5092796;28;20536;-77
2021/12/19 12:02:24;;;;;;;7.88;6.47;;;;;;;6.76;94.78;103010.59;5093268;28;20022;-79
2021/12/19 12:05:16;;;;;;;7.03;5.68;;;;;;;6.97;94.69;103041.22;5092269;28;20016;-78
2021/12/19 12:08:04;;;;;;;6.10;4.80;;;;;;;6.96;94.57;103039.44;5092646;28;20024;-80
2021/12/19 12:10:50;;;;;;;6.18;5.30;;;;;;;6.92;93.88;103043.03;5092940;28;20024;-76
2021/12/19 12:13:25;;;;;;;7.80;5.57;;;;;;;6.87;93.80;103046.63;5088846;28;20028;-78
2021/12/19 12:15:59;;;;;;;6.57;5.63;;;;;;;6.80;93.64;103035.25;5091454;28;20120;-80
2021/12/19 12:18:36;;;;;;;6.75;5.80;;;;;;;6.71;94.12;103015.09;5092363;28;20045;-80
2021/12/19 12:24:02;;;;;;;8.80;6.13;;;;;;;6.83;94.64;103025.50;5091957;28;20028;-82
2021/12/19 12:26:31;;;;;;;9.20;6.60;;;;;;;6.85;94.74;103027.25;5090031;28;20403;-79
2021/12/19 12:28:57;;;;;;;6.55;5.95;;;;;;;6.79;94.70;103007.94;5089167;28;21047;-78
2021/12/19 12:31:26;;;;;;;8.30;6.38;;;;;;;6.90;94.80;103023.66;5088347;28;20023;-78